Time;durP1;ratioP1;P1;durP2;ratioP2;P2;SDS_P1;SDS_P2;PMS_P1;PMS_P2;Temp;Humidity;BMP_temperature;BMP_pressure;BME280_temperature;BME280_humidity;BME280_pressure;Samples;Min_cycle;Max_cycle;Signal;HPM_P1;HPM_P2
2022/08/25 00:00:17;;;;;;;4.97;4.67;;;20.80;99.90;;;;;;6039912;23;20164;-62
2022/08/25 00:02:45;;;;;;;5.50;5.00;;;20.70;99.90;;;;;;6062099;23;20168;-62
2022/08/25 00:05:26;;;;;;;7.43;5.20;;;20.70;99.90;;;;;;6066330;23;20490;-62
2022/08/25 00:08:00;;;;;;;5.40;5.10;;;20.60;99.90;;;;;;6066204;23;20880;-62
2022/08/25 00:10:29;;;;;;;5.23;4.73;;;20.50;99.90;;;;;;6039384;23;20195;-62
2022/08/25 00:13:01;;;;;;;5.57;4.70;;;20.50;99.90;;;;;;6065606;23;20248;-63
2022/08/25 00:15:31;;;;;;;5.13;4.77;;;20.50;99.90;;;;;;6065859;23;20670;-62
2022/08/25 00:18:00;;;;;;;5.90;5.43;;;20.50;99.90;;;;;;6066481;23;20202;-62
2022/08/25 00:20:30;;;;;;;5.77;5.27;;;20.40;99.90;;;;;;6065650;23;20164;-62
2022/08/25 00:22:58;;;;;;;5.90;5.37;;;20.30;99.90;;;;;;6065117;23;20199;-62
2022/08/25 00:25:27;;;;;;;8.23;5.50;;;20.30;99.90;;;;;;6040533;23;20275;-62
2022/08/25 00:27:56;;;;;;;6.23;5.20;;;20.20;99.90;;;;;;6065067;23;20172;-62
2022/08/25 00:30:25;;;;;;;5.80;5.40;;;20.10;99.90;;;;;;6065703;23;20189;-62
2022/08/25 00:32:54;;;;;;;6.00;5.50;;;20.10;99.90;;;;;;6065373;23;20538;-62
2022/08/25 00:35:26;;;;;;;6.00;5.40;;;20.10;99.90;;;;;;6039800;23;20175;-62
2022/08/25 00:37:54;;;;;;;5.73;5.23;;;20.10;99.90;;;;;;6065004;23;20693;-62
2022/08/25 00:40:24;;;;;;;6.50;5.87;;;20.10;99.90;;;;;;6040079;23;20187;-63
2022/08/25 00:42:53;;;;;;;5.93;5.47;;;20.10;99.90;;;;;;6066726;23;20251;-62
2022/08/25 00:45:22;;;;;;;5.63;5.23;;;20.00;99.90;;;;;;6041661;23;20239;-62
2022/08/25 00:47:51;;;;;;;7.30;5.70;;;20.00;99.90;;;;;;6065571;23;20176;-62
2022/08/25 00:50:21;;;;;;;9.13;5.40;;;20.00;99.90;;;;;;6067301;23;20198;-62
2022/08/25 00:52:59;;;;;;;5.40;5.10;;;19.90;99.90;;;;;;6066224;23;20243;-62
2022/08/25 00:55:31;;;;;;;6.17;5.67;;;19.90;99.90;;;;;;6066831;23;20160;-63
2022/08/25 00:58:05;;;;;;;6.30;5.90;;;19.80;99.90;;;;;;6066455;23;20243;-62
2022/08/25 01:00:36;;;;;;;7.03;6.43;;;19.70;99.90;;;;;;6041553;23;20199;-62
2022/08/25 01:03:07;;;;;;;6.80;6.23;;;19.70;99.90;;;;;;6065886;23;20233;-62
2022/08/25 01:05:36;;;;;;;7.37;6.77;;;19.60;99.90;;;;;;6067121;23;20169;-62
2022/08/25 01:08:06;;;;;;;8.83;7.60;;;19.60;99.90;;;;;;6066549;23;20206;-62
2022/08/25 01:10:36;;;;;;;7.57;6.87;;;19.60;99.90;;;;;;6067561;23;20266;-62
2022/08/25 01:13:09;;;;;;;9.77;7.10;;;19.50;99.90;;;;;;6064587;23;20248;-62
2022/08/25 01:15:44;;;;;;;7.63;7.00;;;19.50;99.90;;;;;;6040151;23;20168;-62
2022/08/25 01:18:14;;;;;;;7.33;6.83;;;19.50;99.90;;;;;;6067279;23;20620;-62
2022/08/25 01:20:43;;;;;;;8.37;7.57;;;19.50;99.90;;;;;;6066688;23;20164;-62
2022/08/25 01:23:13;;;;;;;7.23;6.67;;;19.50;99.90;;;;;;6065327;23;20168;-62
2022/08/25 01:25:48;;;;;;;7.60;6.90;;;19.40;99.90;;;;;;6067323;23;20681;-62
2022/08/25 01:28:17;;;;;;;8.23;7.50;;;19.40;99.90;;;;;;6065538;23;20250;-62
2022/08/25 01:30:46;;;;;;;8.47;7.63;;;19.40;99.90;;;;;;6066983;23;20180;-62
2022/08/25 01:33:16;;;;;;;8.27;7.43;;;19.30;99.90;;;;;;6065907;23;20172;-62
2022/08/25 01:35:45;;;;;;;8.97;8.17;;;19.30;99.90;;;;;;6066323;23;20185;-62
2022/08/25 01:38:16;;;;;;;8.50;7.80;;;19.20;99.90;;;;;;6066275;23;20168;-62
2022/08/25 01:40:44;;;;;;;8.53;7.77;;;19.10;99.90;;;;;;6066348;23;20171;-62
2022/08/25 01:43:21;;;;;;;11.33;8.20;;;19.20;99.90;;;;;;6065416;23;20251;-63
2022/08/25 01:45:50;;;;;;;9.87;8.20;;;19.10;99.90;;;;;;6041342;23;20256;-62
2022/08/25 01:48:19;;;;;;;8.37;7.67;;;19.00;99.90;;;;;;6066144;23;20172;-62
2022/08/25 01:50:47;;;;;;;8.00;7.30;;;19.10;99.90;;;;;;6066245;23;20188;-62
2022/08/25 01:53:23;;;;;;;8.20;7.60;;;19.00;99.90;;;;;;6065365;23;20192;-62
2022/08/25 01:55:52;;;;;;;9.10;8.40;;;19.00;99.90;;;;;;6066806;23;20246;-63
2022/08/25 01:58:23;;;;;;;9.43;8.63;;;19.00;99.90;;;;;;6040258;23;20223;-62
2022/08/25 02:00:55;;;;;;;11.57;9.23;;;18.90;99.90;;;;;;6066372;23;20175;-62
2022/08/25 02:03:25;;;;;;;9.97;8.97;;;18.90;99.90;;;;;;6040516;23;20251;-62
2022/08/25 02:05:54;;;;;;;9.63;8.77;;;18.90;99.90;;;;;;6065431;23;20172;-62
2022/08/25 02:08:25;;;;;;;10.40;9.40;;;18.80;99.90;;;;;;6015852;23;20203;-62
2022/08/25 02:10:55;;;;;;;14.13;11.00;;;18.80;99.90;;;;;;6064539;23;20191;-62
2022/08/25 02:13:24;;;;;;;11.93;10.93;;;18.80;99.90;;;;;;6064924;23;20697;-62
2022/08/25 02:16:01;;;;;;;12.80;11.60;;;18.80;99.90;;;;;;6066224;23;20613;-62
2022/08/25 02:18:30;;;;;;;14.17;11.53;;;18.70;99.90;;;;;;6040352;23;20248;-62
2022/08/25 02:20:59;;;;;;;10.73;9.63;;;18.70;99.90;;;;;;6066482;23;20243;-62
2022/08/25 02:23:28;;;;;;;11.80;10.73;;;18.60;99.90;;;;;;6065893;23;20250;-62
2022/08/25 02:25:57;;;;;;;13.57;12.17;;;18.60;99.90;;;;;;6066217;23;20200;-62
2022/08/25 02:28:26;;;;;;;13.60;10.33;;;18.60;99.90;;;;;;6065658;23;20501;-62
2022/08/25 02:30:54;;;;;;;16.07;10.40;;;18.50;99.90;;;;;;6065895;23;20268;-62
2022/08/25 02:33:29;;;;;;;10.27;9.27;;;18.50;99.90;;;;;;6065935;23;20247;-62
2022/08/25 02:35:58;;;;;;;11.40;10.23;;;18.50;99.90;;;;;;6065868;23;20271;-62
2022/08/25 02:38:30;;;;;;;10.87;9.87;;;18.50;99.90;;;;;;6065877;23;20200;-62
2022/08/25 02:40:59;;;;;;;12.70;11.07;;;18.40;99.90;;;;;;6065928;23;20240;-64
2022/08/25 02:43:29;;;;;;;12.50;11.30;;;18.40;99.90;;;;;;6039984;23;20172;-63
2022/08/25 02:45:58;;;;;;;13.97;11.73;;;18.40;99.90;;;;;;6066196;23;20179;-63
2022/08/25 02:48:27;;;;;;;15.47;12.70;;;18.40;99.90;;;;;;6065802;23;20172;-63
2022/08/25 02:50:59;;;;;;;12.23;10.90;;;18.40;99.90;;;;;;6066310;23;20576;-63
2022/08/25 02:53:31;;;;;;;15.53;11.40;;;18.40;99.90;;;;;;6065114;23;20175;-63
2022/08/25 02:56:00;;;;;;;13.83;12.33;;;18.40;99.90;;;;;;6065942;23;20264;-63
2022/08/25 02:58:28;;;;;;;12.57;11.37;;;18.40;99.90;;;;;;6065677;23;20196;-63
2022/08/25 03:01:00;;;;;;;13.50;12.20;;;18.30;99.90;;;;;;6065557;23;20207;-63
2022/08/25 03:03:29;;;;;;;14.47;12.93;;;18.30;99.90;;;;;;6064330;23;20196;-63
2022/08/25 03:05:58;;;;;;;16.40;14.47;;;18.30;99.90;;;;;;6065997;23;20246;-63
2022/08/25 03:08:26;;;;;;;16.70;13.83;;;18.30;99.90;;;;;;6065752;23;20203;-63
2022/08/25 03:10:56;;;;;;;13.33;12.10;;;18.30;99.90;;;;;;6065985;23;20184;-63
2022/08/25 03:13:24;;;;;;;12.63;11.30;;;18.30;99.90;;;;;;6039479;23;20195;-63
2022/08/25 03:15:53;;;;;;;13.37;10.57;;;18.30;99.90;;;;;;6065745;23;20649;-63
2022/08/25 03:18:23;;;;;;;12.23;11.00;;;18.30;99.90;;;;;;6065737;23;20168;-63
2022/08/25 03:20:51;;;;;;;13.07;11.70;;;18.30;99.90;;;;;;6065311;23;20164;-62
2022/08/25 03:23:20;;;;;;;12.77;10.50;;;18.20;99.90;;;;;;6064898;23;20259;-63
2022/08/25 03:28:36;;;;;;;14.60;11.03;;;18.10;99.90;;;;;;6039527;23;20210;-63
2022/08/25 03:31:04;;;;;;;16.93;12.60;;;18.10;99.90;;;;;;6066725;23;21106;-63
2022/08/25 03:33:33;;;;;;;12.83;11.63;;;18.10;99.90;;;;;;6064085;23;20168;-63
2022/08/25 03:36:01;;;;;;;12.20;10.97;;;18.10;99.90;;;;;;6064679;23;20573;-63
2022/08/25 03:38:30;;;;;;;12.03;10.83;;;18.00;99.90;;;;;;6065520;23;20224;-63
2022/08/25 03:40:58;;;;;;;13.10;10.87;;;18.00;99.90;;;;;;6039213;23;20562;-63
2022/08/25 03:43:26;;;;;;;13.40;11.10;;;18.00;99.90;;;;;;6063957;23;20202;-63
2022/08/25 03:45:56;;;;;;;11.97;10.73;;;18.00;99.90;;;;;;6065764;23;20460;-63
2022/08/25 03:48:24;;;;;;;15.57;10.57;;;18.00;99.90;;;;;;6065208;23;20172;-63
2022/08/25 03:50:53;;;;;;;12.63;10.60;;;17.90;99.90;;;;;;6066247;23;20198;-63
2022/08/25 03:53:22;;;;;;;12.13;11.00;;;17.90;99.90;;;;;;6064150;23;20169;-64
2022/08/25 03:55:50;;;;;;;12.70;11.40;;;17.90;99.90;;;;;;6065770;23;20188;-63
2022/08/25 03:58:19;;;;;;;12.53;11.33;;;17.80;99.90;;;;;;6064579;23;20176;-63
2022/08/25 04:00:47;;;;;;;11.60;10.53;;;17.90;99.90;;;;;;6063420;23;20168;-63
2022/08/25 04:03:18;;;;;;;16.13;11.13;;;17.80;99.90;;;;;;6063236;23;20689;-63
2022/08/25 04:05:46;;;;;;;14.20;11.17;;;17.80;99.90;;;;;;6063585;23;20165;-63
2022/08/25 04:08:15;;;;;;;13.50;11.70;;;17.70;99.90;;;;;;6065835;23;20220;-63
2022/08/25 04:10:46;;;;;;;15.63;12.07;;;17.70;99.90;;;;;;6064731;23;20169;-63
2022/08/25 04:13:57;;;;;;;15.23;12.00;;;17.70;99.90;;;;;;6064241;23;20221;-63
2022/08/25 04:17:05;;;;;;;11.67;10.47;;;17.70;99.90;;;;;;6066612;23;20970;-63
2022/08/25 04:20:15;;;;;;;12.97;11.23;;;17.70;99.90;;;;;;6067581;23;20202;-64
2022/08/25 04:23:24;;;;;;;12.77;11.47;;;17.70;99.90;;;;;;6066721;23;20180;-63
2022/08/25 04:26:36;;;;;;;11.47;10.27;;;17.70;99.90;;;;;;6066922;23;20207;-63
2022/08/25 04:29:44;;;;;;;19.00;12.90;;;17.70;99.90;;;;;;6065053;23;20486;-63
2022/08/25 04:32:55;;;;;;;17.57;14.23;;;17.80;99.90;;;;;;6065463;23;20192;-63
2022/08/25 04:36:06;;;;;;;17.53;14.10;;;17.90;99.90;;;;;;6066758;23;20215;-63
2022/08/25 04:39:20;;;;;;;15.10;12.73;;;17.90;99.90;;;;;;6066249;23;20166;-63
2022/08/25 04:42:29;;;;;;;13.40;11.73;;;17.90;99.90;;;;;;6066104;23;20161;-63
2022/08/25 04:45:40;;;;;;;12.20;10.97;;;17.90;99.90;;;;;;6067638;23;20463;-63
2022/08/25 04:48:49;;;;;;;12.50;10.43;;;17.80;99.90;;;;;;6066659;23;20244;-63
2022/08/25 04:51:59;;;;;;;10.73;9.63;;;17.70;99.90;;;;;;6066333;23;20204;-63
2022/08/25 04:55:08;;;;;;;14.97;10.43;;;17.70;99.90;;;;;;6065553;23;20495;-63
2022/08/25 04:58:17;;;;;;;16.57;10.37;;;17.70;99.90;;;;;;6065709;23;20195;-63
2022/08/25 05:01:26;;;;;;;17.53;14.30;;;17.70;99.90;;;;;;6065441;23;20179;-63
2022/08/25 05:04:36;;;;;;;13.43;11.47;;;17.70;99.90;;;;;;6065949;23;20546;-63
2022/08/25 05:07:46;;;;;;;13.70;11.07;;;17.70;99.90;;;;;;6066897;23;20239;-63
2022/08/25 05:10:55;;;;;;;13.73;12.13;;;17.70;99.90;;;;;;6062073;23;20200;-63
2022/08/25 05:13:25;;;;;;;15.97;14.13;;;17.80;99.90;;;;;;6062748;23;20203;-63
2022/08/25 05:16:15;;;;;;;19.17;16.27;;;17.90;99.90;;;;;;6066568;23;20169;-63
2022/08/25 05:19:04;;;;;;;22.60;19.20;;;17.90;99.90;;;;;;6065949;23;20179;-63
2022/08/25 05:21:52;;;;;;;24.87;20.00;;;18.00;99.90;;;;;;6067051;23;20163;-63
2022/08/25 05:24:42;;;;;;;27.17;20.47;;;18.10;99.90;;;;;;6067264;23;20236;-63
2022/08/25 05:27:30;;;;;;;28.20;20.13;;;18.30;99.90;;;;;;6066146;23;20169;-63
2022/08/25 05:30:19;;;;;;;26.23;20.60;;;18.40;99.90;;;;;;6065690;23;20161;-63
2022/08/25 05:33:08;;;;;;;27.60;20.43;;;18.60;99.90;;;;;;6065153;23;20521;-63
2022/08/25 05:35:57;;;;;;;23.50;19.10;;;18.70;99.90;;;;;;6066215;23;20212;-63
2022/08/25 05:38:46;;;;;;;21.13;18.43;;;18.70;99.90;;;;;;6066436;23;20171;-63
2022/08/25 05:41:35;;;;;;;23.23;17.67;;;18.80;99.90;;;;;;6066575;23;20578;-64
2022/08/25 05:44:24;;;;;;;21.97;17.53;;;19.00;99.90;;;;;;6064754;23;20172;-64
2022/08/25 05:47:12;;;;;;;19.83;16.27;;;19.10;99.90;;;;;;6066394;23;20164;-64
2022/08/25 05:50:01;;;;;;;19.73;16.90;;;19.30;99.90;;;;;;6065593;23;20224;-64
2022/08/25 05:52:49;;;;;;;20.07;15.70;;;19.50;99.90;;;;;;6063103;23;20199;-64
2022/08/25 05:55:37;;;;;;;17.73;15.17;;;19.70;99.90;;;;;;6065196;23;20617;-64
2022/08/25 05:58:30;;;;;;;17.40;13.93;;;19.90;99.90;;;;;;6065643;23;20526;-64
2022/08/25 06:04:31;;;;;;;16.60;12.70;;;20.30;99.90;;;;;;6066623;23;20745;-64
2022/08/25 06:07:19;;;;;;;13.23;11.67;;;20.40;99.90;;;;;;6064630;23;20161;-63
2022/08/25 06:10:10;;;;;;;13.83;11.20;;;20.40;99.90;;;;;;6065489;23;20597;-63
2022/08/25 06:12:59;;;;;;;15.83;10.77;;;20.60;99.90;;;;;;6064914;23;20505;-64
2022/08/25 06:15:30;;;;;;;20.37;12.37;;;20.60;99.90;;;;;;6064232;23;20180;-63
2022/08/25 06:18:00;;;;;;;13.50;10.57;;;20.70;99.90;;;;;;6065536;23;20172;-64
2022/08/25 06:20:32;;;;;;;14.07;10.90;;;20.80;99.90;;;;;;6064327;23;20177;-63
2022/08/25 06:23:00;;;;;;;12.40;10.97;;;20.80;99.90;;;;;;6065597;23;20185;-64
2022/08/25 06:25:31;;;;;;;15.23;11.30;;;20.90;99.90;;;;;;6066710;23;20803;-64
2022/08/25 06:27:59;;;;;;;15.27;10.70;;;20.90;99.90;;;;;;6065422;23;20187;-63
2022/08/25 06:30:30;;;;;;;12.30;9.97;;;20.90;99.90;;;;;;6067017;23;20183;-63
2022/08/25 06:32:58;;;;;;;11.97;10.60;;;20.90;99.90;;;;;;6065386;23;20517;-63
2022/08/25 06:35:26;;;;;;;13.00;9.93;;;21.00;99.90;;;;;;6066773;23;20613;-64
2022/08/25 06:37:55;;;;;;;10.57;9.57;;;21.00;99.90;;;;;;6066512;23;20183;-63
2022/08/25 06:40:24;;;;;;;14.47;9.60;;;21.10;99.90;;;;;;6065852;23;20460;-63
2022/08/25 06:42:53;;;;;;;16.80;8.83;;;21.30;99.90;;;;;;6065109;23;20509;-63
2022/08/25 06:45:21;;;;;;;9.43;8.37;;;21.60;99.90;;;;;;6065609;23;20176;-63
2022/08/25 06:47:51;;;;;;;10.50;8.70;;;21.80;99.90;;;;;;6063925;23;20187;-63
2022/08/25 06:50:20;;;;;;;8.63;7.83;;;22.00;99.90;;;;;;6061852;23;20200;-63
2022/08/25 06:52:48;;;;;;;9.20;7.23;;;22.20;99.90;;;;;;6062645;23;20189;-63
2022/08/25 06:55:17;;;;;;;7.17;6.47;;;22.30;99.90;;;;;;6065105;23;20179;-63
2022/08/25 06:57:47;;;;;;;13.10;7.00;;;22.40;99.90;;;;;;6063085;23;20191;-63
2022/08/25 07:00:16;;;;;;;9.63;6.70;;;22.50;99.90;;;;;;6066278;23;20606;-63
2022/08/25 07:02:44;;;;;;;9.47;6.80;;;22.60;99.90;;;;;;6062262;23;20737;-63
2022/08/25 07:05:16;;;;;;;9.10;6.57;;;22.60;99.90;;;;;;6064613;23;20200;-66
2022/08/25 07:08:01;;;;;;;10.53;6.40;;;22.70;99.90;;;;;;6064685;23;21036;-66
2022/08/25 07:10:29;;;;;;;7.43;6.07;;;22.80;99.90;;;;;;6066910;23;20182;-64
2022/08/25 07:12:58;;;;;;;8.10;5.17;;;22.90;99.90;;;;;;6065784;23;20188;-64
2022/08/25 07:15:27;;;;;;;6.30;5.50;;;22.80;99.90;;;;;;6065860;23;20177;-64
2022/08/25 07:17:57;;;;;;;11.47;5.00;;;22.90;99.90;;;;;;6066858;23;20214;-64
2022/08/25 07:20:28;;;;;;;5.47;4.93;;;23.10;99.90;;;;;;6064993;23;20652;-64
2022/08/25 07:22:57;;;;;;;5.60;5.10;;;23.30;99.90;;;;;;6065585;23;20434;-64
2022/08/25 07:25:26;;;;;;;9.53;4.80;;;23.60;99.90;;;;;;6063591;23;20214;-64
2022/08/25 07:27:55;;;;;;;13.10;4.23;;;24.00;99.90;;;;;;6065508;23;20234;-64
2022/08/25 07:30:26;;;;;;;5.10;4.23;;;24.20;99.90;;;;;;6066560;23;20228;-64
2022/08/25 07:32:54;;;;;;;5.97;4.37;;;24.40;99.90;;;;;;6065797;23;20519;-63
2022/08/25 07:35:24;;;;;;;4.87;4.10;;;24.60;99.90;;;;;;6065106;23;20199;-64
2022/08/25 07:38:13;;;;;;;7.23;4.10;;;24.70;99.90;;;;;;6065988;23;20254;-64
2022/08/25 07:40:53;;;;;;;6.57;3.60;;;24.70;99.90;;;;;;6066308;23;20227;-63
2022/08/25 07:43:24;;;;;;;3.70;3.40;;;24.90;99.90;;;;;;6066209;23;20219;-64
2022/08/25 07:45:52;;;;;;;4.70;3.70;;;25.10;99.90;;;;;;6065013;23;20259;-64
2022/08/25 07:48:21;;;;;;;5.00;3.47;;;25.30;99.90;;;;;;6064447;23;20191;-64
2022/08/25 07:50:50;;;;;;;3.93;3.50;;;25.50;99.90;;;;;;6063490;23;20263;-64
2022/08/25 07:53:20;;;;;;;8.70;3.67;;;25.70;99.90;;;;;;6067121;23;20195;-58
2022/08/25 07:55:49;;;;;;;3.40;3.13;;;25.90;99.90;;;;;;6067291;23;20251;-66
2022/08/25 07:58:20;;;;;;;5.00;2.90;;;26.20;99.90;;;;;;6066496;23;20569;-63
2022/08/25 08:00:51;;;;;;;11.27;3.80;;;26.40;99.90;;;;;;6064194;23;20283;-63
2022/08/25 08:03:21;;;;;;;3.97;2.90;;;26.60;99.90;;;;;;6062508;23;20641;-63
2022/08/25 08:06:11;;;;;;;7.13;2.90;;;26.90;99.90;;;;;;6064947;23;20196;-63
2022/08/25 08:08:44;;;;;;;2.87;2.60;;;27.30;99.90;;;;;;6064630;23;20192;-64
2022/08/25 08:11:16;;;;;;;3.87;2.77;;;27.50;99.90;;;;;;6065064;23;20188;-63
2022/08/25 08:13:44;;;;;;;4.70;2.87;;;27.80;99.90;;;;;;6067172;23;20509;-63
2022/08/25 08:16:14;;;;;;;5.85;2.95;;;28.10;99.90;;;;;;6068377;23;20177;-63
2022/08/25 08:18:44;;;;;;;3.20;2.55;;;28.10;99.90;;;;;;6066772;23;20228;-63
2022/08/25 08:21:16;;;;;;;5.00;2.80;;;28.20;99.90;;;;;;6067015;23;20650;-62
2022/08/25 08:23:50;;;;;;;6.45;2.97;;;28.10;99.90;;;;;;6066407;23;20493;-63
2022/08/25 08:26:26;;;;;;;3.53;2.70;;;28.20;99.90;;;;;;6067060;23;20213;-63
2022/08/25 08:29:15;;;;;;;4.85;2.70;;;28.50;99.90;;;;;;6065701;23;20180;-63
2022/08/25 08:31:44;;;;;;;6.38;2.67;;;28.80;99.90;;;;;;6067291;23;20237;-63
2022/08/25 08:34:17;;;;;;;3.05;2.80;;;29.00;99.90;;;;;;6065028;23;20217;-63
2022/08/25 08:36:45;;;;;;;4.65;2.80;;;29.20;99.90;;;;;;6066333;23;20201;-63
2022/08/25 08:39:15;;;;;;;7.40;2.78;;;29.40;99.90;;;;;;6065905;23;20175;-63
2022/08/25 08:42:18;;;;;;;3.15;2.83;;;29.60;99.90;;;;;;6066821;23;20561;-63
2022/08/25 08:45:06;;;;;;;5.60;2.60;;;29.80;99.90;;;;;;6067257;23;20944;-64
2022/08/25 08:47:54;;;;;;;6.95;2.80;;;29.90;99.90;;;;;;6067107;23;20511;-63
2022/08/25 08:50:34;;;;;;;4.22;2.40;;;29.90;99.90;;;;;;6066883;23;20182;-63
2022/08/25 08:53:08;;;;;;;6.20;2.60;;;30.20;99.90;;;;;;6065496;23;20206;-63
2022/08/25 08:55:42;;;;;;;6.85;2.30;;;30.20;99.90;;;;;;6067437;23;20211;-63
2022/08/25 08:58:17;;;;;;;3.97;2.60;;;30.40;99.90;;;;;;6067691;23;20175;-64
2022/08/25 09:00:49;;;;;;;2.80;2.40;;;30.60;99.90;;;;;;6067586;23;20182;-63
2022/08/25 09:03:31;;;;;;;3.17;2.53;;;30.70;99.90;;;;;;6067215;23;20209;-63
2022/08/25 09:06:05;;;;;;;5.93;2.35;;;31.10;99.90;;;;;;6066617;23;20199;-63
2022/08/25 09:08:34;;;;;;;2.75;2.42;;;31.40;99.90;;;;;;6067047;23;20646;-64
2022/08/25 09:11:13;;;;;;;5.82;2.65;;;31.50;99.90;;;;;;6067818;23;20177;-63
2022/08/25 09:14:05;;;;;;;4.93;2.42;;;31.50;99.90;;;;;;6066425;23;20196;-63
2022/08/25 09:16:57;;;;;;;2.50;2.40;;;31.50;99.90;;;;;;6068099;23;20178;-64
2022/08/25 09:19:54;;;;;;;3.13;2.60;;;31.50;99.90;;;;;;6067386;23;20559;-63
2022/08/25 09:22:39;;;;;;;3.38;2.88;;;31.60;99.90;;;;;;6065799;23;20200;-63
2022/08/25 09:25:15;;;;;;;3.40;2.97;;;31.60;99.90;;;;;;6066158;23;20196;-64
2022/08/25 09:28:03;;;;;;;2.58;2.47;;;31.90;99.90;;;;;;6066775;23;20252;-63
2022/08/25 09:30:40;;;;;;;3.80;2.80;;;32.30;99.90;;;;;;6066205;23;20173;-63
2022/08/25 09:33:15;;;;;;;2.50;2.40;;;32.60;99.90;;;;;;6066521;23;20176;-63
2022/08/25 09:35:49;;;;;;;2.40;2.17;;;32.50;99.90;;;;;;6066481;23;20235;-63
2022/08/25 09:38:21;;;;;;;3.13;2.42;;;32.40;99.90;;;;;;6064801;23;20200;-64
2022/08/25 09:40:51;;;;;;;9.88;2.55;;;32.30;99.90;;;;;;6065575;23;20224;-63
2022/08/25 09:43:29;;;;;;;5.45;2.60;;;32.50;99.90;;;;;;6063423;23;20609;-63
2022/08/25 09:46:00;;;;;;;5.18;2.50;;;32.40;99.90;;;;;;6064334;23;20176;-63
2022/08/25 09:48:36;;;;;;;3.90;2.20;;;32.70;99.90;;;;;;6065622;23;20189;-63
2022/08/25 09:51:17;;;;;;;2.78;2.00;;;32.70;99.90;;;;;;6064913;23;20259;-62
2022/08/25 09:53:51;;;;;;;6.93;2.42;;;32.80;99.90;;;;;;6063580;23;20207;-63
2022/08/25 09:56:21;;;;;;;3.10;2.05;;;32.90;99.20;;;;;;6064513;23;20235;-63
2022/08/25 09:58:52;;;;;;;5.18;1.95;;;32.70;99.20;;;;;;6064290;23;20183;-64
2022/08/25 10:01:21;;;;;;;2.58;2.22;;;33.20;99.90;;;;;;6066606;23;20974;-63
2022/08/25 10:03:59;;;;;;;3.03;2.22;;;33.70;98.70;;;;;;6065944;23;20183;-63
2022/08/25 10:06:33;;;;;;;3.80;2.30;;;33.80;98.00;;;;;;6065943;23;20714;-62
2022/08/25 10:09:05;;;;;;;7.25;2.50;;;33.50;97.50;;;;;;6065219;23;20565;-63
2022/08/25 10:11:40;;;;;;;4.35;2.40;;;33.00;97.80;;;;;;6064882;23;20180;-63
2022/08/25 10:14:23;;;;;;;5.03;2.78;;;32.60;97.80;;;;;;6065034;23;20223;-63
2022/08/25 10:16:53;;;;;;;6.32;2.30;;;32.30;98.50;;;;;;6065614;23;20172;-62
2022/08/25 10:19:27;;;;;;;10.43;2.40;;;32.30;99.50;;;;;;6064490;23;20173;-63
2022/08/25 10:22:08;;;;;;;9.25;2.40;;;33.30;99.30;;;;;;6061895;23;20279;-63
2022/08/25 10:24:40;;;;;;;7.90;2.45;;;34.20;97.90;;;;;;6065104;23;20175;-63
2022/08/25 10:27:25;;;;;;;13.75;2.38;;;34.80;97.60;;;;;;6065305;23;20242;-63
2022/08/25 10:30:17;;;;;;;8.88;2.30;;;35.00;96.80;;;;;;6061497;23;20203;-63
2022/08/25 10:33:12;;;;;;;6.07;1.90;;;35.20;94.90;;;;;;6065865;23;20597;-61
2022/08/25 10:35:55;;;;;;;3.72;2.08;;;35.00;95.10;;;;;;6064320;23;20271;-61
2022/08/25 10:38:35;;;;;;;6.13;2.38;;;35.70;94.50;;;;;;6064339;23;20204;-61
2022/08/25 10:41:21;;;;;;;7.38;2.30;;;36.00;94.60;;;;;;6065170;23;20187;-61
2022/08/25 10:43:54;;;;;;;3.88;1.80;;;36.00;93.80;;;;;;6063468;23;20180;-61
2022/08/25 10:46:37;;;;;;;4.10;2.00;;;36.50;94.00;;;;;;6063767;23;20505;-61
2022/08/25 10:49:08;;;;;;;3.10;1.80;;;37.10;91.80;;;;;;6064864;23;20279;-61
2022/08/25 10:51:52;;;;;;;5.18;1.65;;;37.60;90.40;;;;;;6064392;23;20199;-63
2022/08/25 10:54:36;;;;;;;9.25;2.00;;;37.60;90.10;;;;;;6063590;23;20196;-64
2022/08/25 10:57:13;;;;;;;6.35;1.67;;;37.40;90.00;;;;;;6065354;23;20257;-63
2022/08/25 10:59:52;;;;;;;4.63;1.73;;;37.20;88.60;;;;;;6066276;23;20617;-63
2022/08/25 11:03:06;;;;;;;2.30;1.80;;;37.00;86.70;;;;;;6066754;23;20533;-60
2022/08/25 11:05:40;;;;;;;2.13;1.60;;;37.10;85.80;;;;;;6065684;23;20200;-61
2022/08/25 11:08:13;;;;;;;1.70;1.70;;;37.10;85.10;;;;;;6061084;23;20239;-60
2022/08/25 11:10:47;;;;;;;1.80;1.70;;;36.80;84.80;;;;;;6062582;23;20173;-61
2022/08/25 11:13:26;;;;;;;2.58;1.52;;;37.00;83.80;;;;;;6064734;23;20598;-61
2022/08/25 11:15:58;;;;;;;2.22;1.70;;;36.80;84.50;;;;;;6062542;23;20770;-61
2022/08/25 11:18:51;;;;;;;1.85;1.83;;;37.20;82.40;;;;;;6064423;23;20649;-61
2022/08/25 11:21:24;;;;;;;8.38;2.05;;;37.20;80.60;;;;;;6063932;23;20184;-60
2022/08/25 11:23:59;;;;;;;4.47;1.60;;;37.30;81.60;;;;;;6062832;23;20588;-63
2022/08/25 11:26:33;;;;;;;3.03;1.80;;;37.20;81.40;;;;;;6061656;23;20205;-63
2022/08/25 11:29:12;;;;;;;3.78;1.70;;;37.00;79.70;;;;;;6063495;23;20176;-64
2022/08/25 11:31:49;;;;;;;2.95;1.77;;;37.00;80.30;;;;;;6065772;23;20196;-63
2022/08/25 11:34:23;;;;;;;1.70;1.60;;;37.00;81.40;;;;;;6063946;23;20180;-63
2022/08/25 11:36:54;;;;;;;2.08;1.70;;;37.20;79.50;;;;;;6065091;23;20259;-63
2022/08/25 11:39:36;;;;;;;1.98;1.77;;;37.10;79.30;;;;;;6062785;23;20696;-63
2022/08/25 11:42:16;;;;;;;1.95;1.83;;;37.20;78.30;;;;;;6064469;23;20183;-63
2022/08/25 11:44:54;;;;;;;1.95;1.60;;;36.90;77.90;;;;;;6065993;23;20474;-63
2022/08/25 11:47:48;;;;;;;2.08;1.67;;;36.80;78.30;;;;;;6065795;23;20180;-64
2022/08/25 11:50:30;;;;;;;3.22;1.40;;;36.80;79.60;;;;;;6067287;23;20172;-63
2022/08/25 11:53:02;;;;;;;1.90;1.80;;;36.90;77.40;;;;;;6065448;23;20529;-62
2022/08/25 11:55:48;;;;;;;3.15;1.88;;;36.80;77.20;;;;;;6064737;23;20220;-63
2022/08/25 11:58:42;;;;;;;2.25;2.03;;;36.90;77.40;;;;;;6066741;23;20200;-63
2022/08/25 12:01:33;;;;;;;1.73;1.65;;;36.90;78.20;;;;;;6066402;23;20247;-63
2022/08/25 12:04:16;;;;;;;2.22;1.85;;;36.80;77.60;;;;;;6066715;23;20210;-62
2022/08/25 12:07:23;;;;;;;2.97;1.88;;;36.90;77.60;;;;;;6066501;23;20267;-62
2022/08/25 12:10:17;;;;;;;2.05;1.90;;;36.80;76.60;;;;;;6055147;23;20196;-63
2022/08/25 12:13:02;;;;;;;2.13;1.50;;;36.60;75.50;;;;;;6066985;23;20179;-62
2022/08/25 12:15:55;;;;;;;3.42;1.88;;;36.50;77.60;;;;;;6066639;23;20192;-62
2022/08/25 12:18:42;;;;;;;3.28;2.00;;;36.30;76.20;;;;;;6067324;23;20186;-62
2022/08/25 12:21:15;;;;;;;2.10;1.83;;;36.20;76.30;;;;;;6066756;23;20175;-62
2022/08/25 12:24:04;;;;;;;2.72;1.70;;;35.90;77.50;;;;;;6066925;23;20180;-62
2022/08/25 12:26:43;;;;;;;3.85;1.92;;;35.70;77.90;;;;;;6066634;23;20700;-62
2022/08/25 12:29:20;;;;;;;2.95;1.77;;;35.20;77.30;;;;;;6067255;23;20172;-62
2022/08/25 12:32:28;;;;;;;4.15;2.03;;;35.20;79.70;;;;;;6066240;23;20191;-62
2022/08/25 12:35:25;;;;;;;2.88;1.80;;;35.50;78.20;;;;;;6048880;23;20260;-63
2022/08/25 12:38:01;;;;;;;7.72;2.42;;;35.80;77.30;;;;;;6064119;23;20252;-62
2022/08/25 12:40:36;;;;;;;2.88;2.65;;;36.20;81.20;;;;;;6068008;23;20294;-62
2022/08/25 12:43:10;;;;;;;3.10;2.90;;;35.90;83.20;;;;;;6066267;23;20180;-62
2022/08/25 12:45:44;;;;;;;6.90;2.55;;;35.30;84.50;;;;;;6066687;23;20524;-62
2022/08/25 12:48:41;;;;;;;3.08;2.70;;;34.70;85.70;;;;;;6066963;23;20490;-62
2022/08/25 12:51:17;;;;;;;7.72;2.78;;;34.10;86.30;;;;;;6065233;23;20236;-62
2022/08/25 12:53:49;;;;;;;4.40;3.17;;;33.60;86.80;;;;;;6063534;23;20192;-62
2022/08/25 12:56:25;;;;;;;7.53;2.72;;;33.40;88.60;;;;;;6066498;23;20222;-62
2022/08/25 12:59:09;;;;;;;3.58;2.85;;;33.30;89.80;;;;;;6063658;23;20492;-63
2022/08/25 13:01:57;;;;;;;4.65;2.90;;;33.20;90.00;;;;;;6066928;23;20176;-62
2022/08/25 13:04:42;;;;;;;5.15;3.83;;;33.10;90.00;;;;;;6067358;23;20186;-63
2022/08/25 13:07:24;;;;;;;10.45;5.72;;;32.90;91.60;;;;;;6067025;23;20181;-61
2022/08/25 13:10:18;;;;;;;14.00;5.05;;;32.70;94.10;;;;;;6066033;23;20184;-62
2022/08/25 13:12:52;;;;;;;10.63;5.22;;;32.50;95.20;;;;;;6068195;23;20182;-63
2022/08/25 13:15:37;;;;;;;5.57;4.75;;;32.30;95.40;;;;;;6067670;23;20181;-61
2022/08/25 13:18:18;;;;;;;6.97;4.35;;;32.30;95.60;;;;;;6067805;23;20621;-62
2022/08/25 13:20:47;;;;;;;7.72;4.80;;;32.40;96.00;;;;;;6067235;23;20179;-62
2022/08/25 13:23:21;;;;;;;6.97;5.07;;;32.50;96.00;;;;;;6065105;23;20550;-62
2022/08/25 13:25:53;;;;;;;7.45;4.40;;;32.50;96.40;;;;;;6065776;23;20686;-62
2022/08/25 13:28:29;;;;;;;16.30;4.63;;;32.50;96.90;;;;;;6065635;23;20266;-63
2022/08/25 13:31:03;;;;;;;8.82;4.25;;;32.50;96.40;;;;;;6063435;23;20186;-62
2022/08/25 13:33:32;;;;;;;5.93;4.15;;;32.60;96.50;;;;;;6063013;23;20664;-62
2022/08/25 13:39:43;;;;;;;10.18;4.18;;;33.40;94.80;;;;;;6065283;23;20212;-62
2022/08/25 13:43:06;;;;;;;5.15;4.65;;;33.90;95.60;;;;;;6061468;23;20212;-62